Time;durP1;ratioP1;P1;durP2;ratioP2;P2;SDS_P1;SDS_P2;PMS_P1;PMS_P2;Temp;Humidity;BMP_temperature;BMP_pressure;BME280_temperature;BME280_humidity;BME280_pressure;Samples;Min_cycle;Max_cycle;Signal;HPM_P1;HPM_P2
2023/01/13 00:01:52;;;;;;;9.57;2.75;;;;;;;;;;5066528;28;20045;-75
2023/01/13 00:04:23;;;;;;;6.22;2.80;;;;;;;;;;5067481;28;20049;-76
2023/01/13 00:06:53;;;;;;;7.60;2.55;;;;;;;;;;5067257;28;20434;-80
2023/01/13 00:09:26;;;;;;;6.70;2.70;;;;;;;;;;5067774;28;20048;-75
2023/01/13 00:11:57;;;;;;;4.20;2.25;;;;;;;;;;5066978;28;20036;-76
2023/01/13 00:14:29;;;;;;;5.45;2.47;;;;;;;;;;5049645;28;20442;-76
2023/01/13 00:16:59;;;;;;;5.03;2.20;;;;;;;;;;5066683;28;20063;-77
2023/01/13 00:19:29;;;;;;;4.00;2.35;;;;;;;;;;5048626;28;20384;-76
2023/01/13 00:22:01;;;;;;;4.43;2.38;;;;;;;;;;5066502;28;20052;-77
2023/01/13 00:24:31;;;;;;;7.13;2.35;;;;;;;;;;5066115;28;20045;-76
2023/01/13 00:27:01;;;;;;;3.10;2.10;;;;;;;;;;5065609;28;20047;-76
2023/01/13 00:29:33;;;;;;;3.78;1.98;;;;;;;;;;5066765;28;21146;-76
2023/01/13 00:32:04;;;;;;;2.85;2.10;;;;;;;;;;5067166;28;20056;-76
2023/01/13 00:34:34;;;;;;;4.18;2.10;;;;;;;;;;5065995;28;20048;-76
2023/01/13 00:37:04;;;;;;;2.90;1.80;;;;;;;;;;5067124;28;20048;-76
2023/01/13 00:39:35;;;;;;;3.55;1.70;;;;;;;;;;5048618;28;20048;-76
2023/01/13 00:44:55;;;;;;;3.58;1.50;;;;;;;;;;5051934;28;20059;-75
2023/01/13 00:47:25;;;;;;;2.83;1.77;;;;;;;;;;5066193;28;20379;-75
2023/01/13 00:49:56;;;;;;;4.53;1.85;;;;;;;;;;5066508;28;20395;-76
2023/01/13 00:52:28;;;;;;;2.95;1.48;;;;;;;;;;5047784;28;20048;-76
2023/01/13 00:54:57;;;;;;;4.47;1.60;;;;;;;;;;5064728;28;20045;-76
2023/01/13 00:57:29;;;;;;;1.98;1.50;;;;;;;;;;5062462;28;20060;-75
2023/01/13 01:00:00;;;;;;;2.42;1.80;;;;;;;;;;5066633;28;20044;-76
2023/01/13 01:02:31;;;;;;;7.80;1.85;;;;;;;;;;5063809;28;20040;-76
2023/01/13 01:05:01;;;;;;;2.60;1.75;;;;;;;;;;5047266;28;20044;-76
2023/01/13 01:07:32;;;;;;;6.82;2.00;;;;;;;;;;5062837;28;20049;-75
2023/01/13 01:10:02;;;;;;;5.55;1.55;;;;;;;;;;5064730;28;20040;-76
2023/01/13 01:12:34;;;;;;;3.63;1.73;;;;;;;;;;5064895;28;20507;-76
2023/01/13 01:15:08;;;;;;;7.35;1.80;;;;;;;;;;5064002;28;20050;-76
2023/01/13 01:17:40;;;;;;;4.72;2.20;;;;;;;;;;5064967;28;20496;-76
2023/01/13 01:20:12;;;;;;;3.88;1.70;;;;;;;;;;5066105;28;20056;-75
2023/01/13 01:22:43;;;;;;;2.60;1.80;;;;;;;;;;5064731;28;20056;-76
2023/01/13 01:25:13;;;;;;;3.45;2.05;;;;;;;;;;5065301;28;20040;-76
2023/01/13 01:27:44;;;;;;;2.45;1.70;;;;;;;;;;5046713;28;20049;-76
2023/01/13 01:30:15;;;;;;;1.88;1.55;;;;;;;;;;5065491;28;20045;-75
2023/01/13 01:32:46;;;;;;;3.63;2.15;;;;;;;;;;5065460;28;20647;-76
2023/01/13 01:35:16;;;;;;;6.15;1.90;;;;;;;;;;5048321;28;20507;-76
2023/01/13 01:37:47;;;;;;;4.93;2.08;;;;;;;;;;5069293;28;20044;-76
2023/01/13 01:40:18;;;;;;;1.98;1.52;;;;;;;;;;5069225;28;20049;-76
2023/01/13 01:45:40;;;;;;;2.50;1.50;;;;;;;;;;5069263;28;20098;-76
2023/01/13 01:48:11;;;;;;;2.90;1.90;;;;;;;;;;5069125;28;20364;-76
2023/01/13 01:50:43;;;;;;;3.80;2.17;;;;;;;;;;5069628;28;20503;-75
2023/01/13 01:53:19;;;;;;;4.40;1.90;;;;;;;;;;5069180;28;20044;-76
2023/01/13 01:55:49;;;;;;;4.63;2.17;;;;;;;;;;5069258;28;20487;-76
2023/01/13 01:58:38;;;;;;;2.15;1.42;;;;;;;;;;5070104;28;20118;-76
2023/01/13 02:01:11;;;;;;;3.50;1.83;;;;;;;;;;5068730;28;20048;-76
2023/01/13 02:03:50;;;;;;;4.70;1.95;;;;;;;;;;5051071;28;20049;-76
2023/01/13 02:06:21;;;;;;;6.82;2.00;;;;;;;;;;5069180;28;20055;-76
2023/01/13 02:08:52;;;;;;;4.47;1.98;;;;;;;;;;5069557;28;20399;-76
2023/01/13 02:14:25;;;;;;;6.40;2.20;;;;;;;;;;5068222;28;20053;-76
2023/01/13 02:17:02;;;;;;;4.32;1.70;;;;;;;;;;5034143;28;20057;-76
2023/01/13 02:19:38;;;;;;;5.70;2.00;;;;;;;;;;5050911;28;20071;-76
2023/01/13 02:22:25;;;;;;;7.78;2.15;;;;;;;;;;5068336;28;20505;-76
2023/01/13 02:24:58;;;;;;;3.10;1.60;;;;;;;;;;5067906;28;20053;-76
2023/01/13 02:27:40;;;;;;;8.55;2.47;;;;;;;;;;5068539;28;20052;-76
2023/01/13 02:34:04;;;;;;;12.90;1.90;;;;;;;;;;5068817;28;20052;-76
2023/01/13 02:36:35;;;;;;;5.30;1.90;;;;;;;;;;5068173;28;20059;-76
2023/01/13 02:39:45;;;;;;;4.40;1.70;;;;;;;;;;5068680;28;20063;-76
2023/01/13 02:45:39;;;;;;;4.70;1.70;;;;;;;;;;5068066;28;20049;-75
2023/01/13 02:48:13;;;;;;;3.67;1.60;;;;;;;;;;5067984;28;20060;-75
2023/01/13 02:50:55;;;;;;;7.97;2.15;;;;;;;;;;5068198;28;20064;-76
2023/01/13 02:53:33;;;;;;;3.63;1.48;;;;;;;;;;5068296;28;20045;-76
2023/01/13 02:56:05;;;;;;;5.93;1.85;;;;;;;;;;5067476;28;20044;-75
2023/01/13 02:58:40;;;;;;;3.50;2.05;;;;;;;;;;5068554;28;20044;-76
2023/01/13 03:01:10;;;;;;;4.47;1.58;;;;;;;;;;5068420;28;20055;-76
2023/01/13 03:03:42;;;;;;;3.65;2.28;;;;;;;;;;5072567;28;20438;-76
2023/01/13 03:06:16;;;;;;;4.45;1.50;;;;;;;;;;5076820;28;20041;-76
2023/01/13 03:09:07;;;;;;;8.93;2.65;;;;;;;;;;5073053;28;20037;-76
2023/01/13 03:11:53;;;;;;;5.22;1.95;;;;;;;;;;5068469;28;20366;-78
2023/01/13 03:14:47;;;;;;;4.05;2.03;;;;;;;;;;5068114;28;20063;-76
2023/01/13 03:17:20;;;;;;;3.30;2.10;;;;;;;;;;5049247;28;20496;-76
2023/01/13 03:20:09;;;;;;;4.50;2.30;;;;;;;;;;5067523;28;20056;-76
2023/01/13 03:22:51;;;;;;;8.35;1.90;;;;;;;;;;5067818;28;20515;-76
2023/01/13 03:25:35;;;;;;;6.68;1.90;;;;;;;;;;5067661;28;20051;-76
2023/01/13 03:28:16;;;;;;;3.00;2.00;;;;;;;;;;5067125;28;20060;-76
2023/01/13 03:30:59;;;;;;;3.63;1.70;;;;;;;;;;5067674;28;20052;-76
2023/01/13 03:33:54;;;;;;;4.05;1.83;;;;;;;;;;5067623;28;20432;-76
2023/01/13 03:36:27;;;;;;;3.50;1.85;;;;;;;;;;5049549;28;20443;-76
2023/01/13 03:39:03;;;;;;;5.05;1.80;;;;;;;;;;5067250;28;20051;-76
2023/01/13 03:41:44;;;;;;;3.20;1.50;;;;;;;;;;5067458;28;20554;-76
2023/01/13 03:44:22;;;;;;;4.75;2.40;;;;;;;;;;5067353;28;20052;-76
2023/01/13 03:47:07;;;;;;;5.40;1.90;;;;;;;;;;5067134;28;20067;-76
2023/01/13 03:49:46;;;;;;;2.53;1.60;;;;;;;;;;5067559;28;20052;-76
2023/01/13 03:52:27;;;;;;;4.03;2.55;;;;;;;;;;5066846;28;20040;-75
2023/01/13 03:55:11;;;;;;;4.85;1.90;;;;;;;;;;5066559;28;20044;-76
2023/01/13 03:58:14;;;;;;;3.78;1.75;;;;;;;;;;5066954;28;20487;-75
2023/01/13 04:01:15;;;;;;;3.10;2.10;;;;;;;;;;5047899;28;20040;-75
2023/01/13 04:04:02;;;;;;;3.35;1.77;;;;;;;;;;5067099;28;20056;-76
2023/01/13 04:06:56;;;;;;;6.03;2.90;;;;;;;;;;5066913;28;20525;-75
2023/01/13 04:09:48;;;;;;;5.72;1.95;;;;;;;;;;5048088;28;20057;-76
2023/01/13 04:12:59;;;;;;;10.23;2.20;;;;;;;;;;5066903;28;20055;-76
2023/01/13 04:15:24;;;;;;;7.97;1.88;;;;;;;;;;5066819;28;20041;-76
2023/01/13 04:18:00;;;;;;;2.58;2.00;;;;;;;;;;5066635;28;20490;-75
2023/01/13 04:20:31;;;;;;;7.88;2.30;;;;;;;;;;5067182;28;20048;-75
2023/01/13 04:23:02;;;;;;;7.18;4.72;;;;;;;;;;5065888;28;20055;-76
2023/01/13 04:25:32;;;;;;;3.90;2.35;;;;;;;;;;5066597;28;20052;-76
2023/01/13 04:28:03;;;;;;;4.25;1.92;;;;;;;;;;5066172;28;20044;-76
2023/01/13 04:30:34;;;;;;;4.57;2.03;;;;;;;;;;5066694;28;20053;-76
2023/01/13 04:33:05;;;;;;;8.07;2.38;;;;;;;;;;5067086;28;20048;-75
2023/01/13 04:35:37;;;;;;;6.18;2.33;;;;;;;;;;5066985;28;20048;-76
2023/01/13 04:38:11;;;;;;;5.60;3.05;;;;;;;;;;5066504;28;20518;-75
2023/01/13 04:40:41;;;;;;;3.55;2.67;;;;;;;;;;5066620;28;20407;-76
2023/01/13 04:43:14;;;;;;;6.28;2.50;;;;;;;;;;5065533;28;20131;-76
2023/01/13 04:45:46;;;;;;;7.18;2.72;;;;;;;;;;5066808;28;20523;-75
2023/01/13 04:48:18;;;;;;;6.28;2.50;;;;;;;;;;5067006;28;20052;-75
2023/01/13 04:50:49;;;;;;;6.78;3.25;;;;;;;;;;5066194;28;20049;-75
2023/01/13 04:53:18;;;;;;;4.93;2.72;;;;;;;;;;5066041;28;20048;-75
2023/01/13 04:55:50;;;;;;;3.97;2.20;;;;;;;;;;5065566;28;20048;-75
2023/01/13 04:58:22;;;;;;;4.80;2.28;;;;;;;;;;5066268;28;20056;-76
2023/01/13 05:00:52;;;;;;;6.97;2.38;;;;;;;;;;5066948;28;20048;-75
2023/01/13 05:03:23;;;;;;;12.00;2.70;;;;;;;;;;5048265;28;20053;-75
2023/01/13 05:06:03;;;;;;;10.85;2.60;;;;;;;;;;5066231;28;20056;-76
2023/01/13 05:08:34;;;;;;;6.43;2.50;;;;;;;;;;5066163;28;20051;-76
2023/01/13 05:16:58;;;;;;;9.05;3.00;;;;;;;;;;5048673;28;20048;-76
2023/01/13 05:17:01;;;;;;;5.72;2.80;;;;;;;;;;5069858;28;20065;-75
2023/01/13 05:19:39;;;;;;;4.53;2.75;;;;;;;;;;5070249;28;20036;-75
2023/01/13 05:27:50;;;;;;;6.55;3.33;;;;;;;;;;5069879;28;20056;-75
2023/01/13 05:30:22;;;;;;;7.25;2.83;;;;;;;;;;5069811;28;20052;-75
2023/01/13 05:32:53;;;;;;;10.00;2.88;;;;;;;;;;5069626;28;20048;-76
2023/01/13 05:35:24;;;;;;;4.28;2.92;;;;;;;;;;5069819;28;20063;-76
2023/01/13 05:37:56;;;;;;;4.82;2.50;;;;;;;;;;5070026;28;20406;-76
2023/01/13 05:43:23;;;;;;;4.22;2.45;;;;;;;;;;5069498;28;20495;-76
2023/01/13 05:46:07;;;;;;;7.10;2.60;;;;;;;;;;5069359;28;20048;-76
2023/01/13 05:48:42;;;;;;;7.22;2.60;;;;;;;;;;5069601;28;20406;-76
2023/01/13 05:51:13;;;;;;;4.00;2.25;;;;;;;;;;5069530;28;20444;-76
2023/01/13 05:53:43;;;;;;;3.70;2.25;;;;;;;;;;5069976;28;20044;-76
2023/01/13 05:56:16;;;;;;;10.20;2.67;;;;;;;;;;5068571;28;20515;-76
2023/01/13 05:58:47;;;;;;;6.57;2.53;;;;;;;;;;5069976;28;20049;-76
2023/01/13 06:01:17;;;;;;;6.45;2.30;;;;;;;;;;5069418;28;20045;-76
2023/01/13 06:03:47;;;;;;;5.53;2.55;;;;;;;;;;5069175;28;20063;-76
2023/01/13 06:06:17;;;;;;;5.00;2.92;;;;;;;;;;5069436;28;20044;-76
2023/01/13 06:08:47;;;;;;;7.68;2.60;;;;;;;;;;5068921;28;20052;-77
2023/01/13 06:11:17;;;;;;;6.63;3.28;;;;;;;;;;5050778;28;20052;-76
2023/01/13 06:13:48;;;;;;;3.35;2.40;;;;;;;;;;5069717;28;20048;-77
2023/01/13 06:16:18;;;;;;;4.55;2.30;;;;;;;;;;5069189;28;20049;-76
2023/01/13 06:18:48;;;;;;;8.10;3.03;;;;;;;;;;5068893;28;20060;-76
2023/01/13 06:21:19;;;;;;;6.30;2.55;;;;;;;;;;5033492;28;20059;-76
2023/01/13 06:23:49;;;;;;;7.18;2.55;;;;;;;;;;5068912;28;20051;-76
2023/01/13 06:26:24;;;;;;;5.32;2.53;;;;;;;;;;5068866;28;20044;-76
2023/01/13 06:28:54;;;;;;;4.78;3.00;;;;;;;;;;5066608;28;20053;-76
2023/01/13 06:31:27;;;;;;;5.57;2.65;;;;;;;;;;5068501;28;20052;-76
2023/01/13 06:34:03;;;;;;;3.33;2.65;;;;;;;;;;5068735;28;20048;-76
2023/01/13 06:36:41;;;;;;;3.88;2.80;;;;;;;;;;5051228;28;20056;-76
2023/01/13 06:39:17;;;;;;;3.85;2.67;;;;;;;;;;5069077;28;20495;-76
2023/01/13 06:44:41;;;;;;;7.30;2.80;;;;;;;;;;5068529;28;20055;-76
2023/01/13 06:47:11;;;;;;;5.70;3.08;;;;;;;;;;5068424;28;20044;-76
2023/01/13 06:49:41;;;;;;;6.50;3.22;;;;;;;;;;5068362;28;20045;-74
2023/01/13 06:52:11;;;;;;;6.30;2.72;;;;;;;;;;5068308;28;20044;-76
2023/01/13 06:54:42;;;;;;;4.50;2.80;;;;;;;;;;5068509;28;20543;-76
2023/01/13 06:57:11;;;;;;;6.78;3.65;;;;;;;;;;5050943;28;20405;-76
2023/01/13 06:59:42;;;;;;;5.82;2.58;;;;;;;;;;5068030;28;20037;-76
2023/01/13 07:02:12;;;;;;;7.13;2.63;;;;;;;;;;5068388;28;20059;-75
2023/01/13 07:04:45;;;;;;;4.93;2.70;;;;;;;;;;5067577;28;20052;-75
2023/01/13 07:07:15;;;;;;;4.18;3.00;;;;;;;;;;5068617;28;20411;-75
2023/01/13 07:09:45;;;;;;;5.88;2.72;;;;;;;;;;5068166;28;20051;-76
2023/01/13 07:12:15;;;;;;;4.45;2.78;;;;;;;;;;5067819;28;20044;-76
2023/01/13 07:17:36;;;;;;;4.95;2.95;;;;;;;;;;5067640;28;20067;-76
2023/01/13 07:20:07;;;;;;;5.65;3.28;;;;;;;;;;5067568;28;20407;-76
2023/01/13 07:22:37;;;;;;;10.38;2.95;;;;;;;;;;5067059;28;20389;-76
2023/01/13 07:25:08;;;;;;;5.72;3.30;;;;;;;;;;5050446;28;20515;-76
2023/01/13 07:27:39;;;;;;;7.75;2.78;;;;;;;;;;5067908;28;20483;-75
2023/01/13 07:30:10;;;;;;;6.32;2.42;;;;;;;;;;5067905;28;20045;-75
2023/01/13 07:32:41;;;;;;;7.88;2.45;;;;;;;;;;5067398;28;20496;-75
2023/01/13 07:35:11;;;;;;;5.18;3.10;;;;;;;;;;5067291;28;20037;-75
2023/01/13 07:37:42;;;;;;;8.27;3.50;;;;;;;;;;5067502;28;20598;-75
2023/01/13 07:40:13;;;;;;;4.05;3.17;;;;;;;;;;5067244;28;20496;-75
2023/01/13 07:45:32;;;;;;;3.90;3.00;;;;;;;;;;5067395;28;20049;-76
2023/01/13 07:48:02;;;;;;;6.07;3.40;;;;;;;;;;5067412;28;20074;-75
2023/01/13 07:50:33;;;;;;;4.90;2.88;;;;;;;;;;5067475;28;20048;-76
2023/01/13 07:53:04;;;;;;;5.72;3.08;;;;;;;;;;5067044;28;20052;-76
2023/01/13 07:55:39;;;;;;;5.68;3.13;;;;;;;;;;5066521;28;20114;-76
2023/01/13 07:58:10;;;;;;;4.75;2.97;;;;;;;;;;5067033;28;20044;-79
2023/01/13 08:00:40;;;;;;;4.65;2.70;;;;;;;;;;5066844;28;20044;-75
2023/01/13 08:03:11;;;;;;;5.53;3.65;;;;;;;;;;5066789;28;20063;-75
2023/01/13 08:05:46;;;;;;;4.50;2.92;;;;;;;;;;5066913;28;20063;-76
2023/01/13 08:08:17;;;;;;;4.72;3.30;;;;;;;;;;5066924;28;20059;-75
2023/01/13 08:10:46;;;;;;;5.32;3.47;;;;;;;;;;5066715;28;20044;-75
2023/01/13 08:13:19;;;;;;;5.03;3.40;;;;;;;;;;5066939;28;20052;-76
2023/01/13 08:15:53;;;;;;;4.07;2.53;;;;;;;;;;5048985;28;20036;-75
2023/01/13 08:18:24;;;;;;;8.77;3.30;;;;;;;;;;5067114;28;20045;-76
2023/01/13 08:20:54;;;;;;;4.25;3.80;;;;;;;;;;5049063;28;20057;-75
2023/01/13 08:23:25;;;;;;;4.90;3.30;;;;;;;;;;5067711;28;20052;-76
2023/01/13 08:25:59;;;;;;;4.40;3.10;;;;;;;;;;5066906;28;20052;-75
2023/01/13 08:28:30;;;;;;;6.90;2.90;;;;;;;;;;5066960;28;20053;-76
2023/01/13 08:31:03;;;;;;;6.43;3.97;;;;;;;;;;5067277;28;20111;-76
2023/01/13 08:33:36;;;;;;;5.85;3.58;;;;;;;;;;5067273;28;20132;-76
2023/01/13 08:36:10;;;;;;;4.55;3.90;;;;;;;;;;5066546;28;20044;-76
2023/01/13 08:38:41;;;;;;;4.88;3.28;;;;;;;;;;5066765;28;20041;-76
2023/01/13 08:41:14;;;;;;;6.22;2.80;;;;;;;;;;5066860;28;20052;-76
2023/01/13 08:43:45;;;;;;;8.73;3.85;;;;;;;;;;5066388;28;20056;-77
2023/01/13 08:46:14;;;;;;;6.70;3.78;;;;;;;;;;5066042;28;20071;-76
2023/01/13 08:48:45;;;;;;;6.53;4.00;;;;;;;;;;5066742;28;20052;-76
2023/01/13 08:51:16;;;;;;;6.00;3.45;;;;;;;;;;5066589;28;20044;-76
2023/01/13 08:53:45;;;;;;;5.55;4.18;;;;;;;;;;5047713;28;20052;-76
2023/01/13 08:56:16;;;;;;;6.95;4.10;;;;;;;;;;5066929;28;20056;-78
2023/01/13 08:58:45;;;;;;;5.50;3.25;;;;;;;;;;5066559;28;20071;-77
2023/01/13 09:01:22;;;;;;;8.25;3.72;;;;;;;;;;5066929;28;20048;-76
2023/01/13 09:03:53;;;;;;;5.60;3.95;;;;;;;;;;5066505;28;20045;-77
2023/01/13 09:06:23;;;;;;;5.25;3.80;;;;;;;;;;5066072;28;20074;-76
2023/01/13 09:08:54;;;;;;;4.70;3.30;;;;;;;;;;5066754;28;20044;-76
2023/01/13 09:14:24;;;;;;;8.82;4.00;;;;;;;;;;5065420;28;20546;-77
2023/01/13 09:16:55;;;;;;;6.82;3.50;;;;;;;;;;5066296;28;20071;-76
2023/01/13 09:19:26;;;;;;;12.50;4.20;;;;;;;;;;5066121;28;20056;-77
2023/01/13 09:21:57;;;;;;;5.72;3.08;;;;;;;;;;5047767;28;20526;-76
2023/01/13 09:24:26;;;;;;;5.03;4.07;;;;;;;;;;5065932;28;20423;-78
2023/01/13 09:26:58;;;;;;;14.30;4.03;;;;;;;;;;5066508;28;20928;-76
2023/01/13 09:29:28;;;;;;;7.85;3.40;;;;;;;;;;5066549;28;20044;-76
2023/01/13 09:31:58;;;;;;;4.97;3.15;;;;;;;;;;5048547;28;20052;-76
2023/01/13 09:37:17;;;;;;;9.13;4.28;;;;;;;;;;5065960;28;20392;-76
2023/01/13 09:39:49;;;;;;;6.18;4.30;;;;;;;;;;5066183;28;20550;-76
2023/01/13 09:45:43;;;;;;;9.77;3.40;;;;;;;;;;5065789;28;20048;-79
2023/01/13 09:48:52;;;;;;;7.90;3.97;;;;;;;;;;5056827;28;20065;-76
2023/01/13 09:51:32;;;;;;;7.63;3.50;;;;;;;;;;5027087;28;20060;-77
2023/01/13 09:54:16;;;;;;;4.45;3.42;;;;;;;;;;5066259;28;20055;-80
2023/01/13 09:56:46;;;;;;;14.65;4.05;;;;;;;;;;5066937;28;20056;-76
2023/01/13 09:59:17;;;;;;;14.07;6.05;;;;;;;;;;5069556;28;20048;-77
2023/01/13 10:02:12;;;;;;;8.80;3.50;;;;;;;;;;5069727;28;20063;-77
2023/01/13 10:05:22;;;;;;;9.52;3.78;;;;;;;;;;5069509;28;20053;-77
2023/01/13 10:08:03;;;;;;;10.15;3.17;;;;;;;;;;5069582;28;20048;-75
2023/01/13 10:13:12;;;;;;;7.95;3.17;;;;;;;;;;5069612;28;20507;-78
2023/01/13 10:14:01;;;;;;;6.85;3.88;;;;;;;;;;5069474;28;20833;-77
2023/01/13 10:16:48;;;;;;;5.90;3.30;;;;;;;;;;5068831;28;20041;-77
2023/01/13 10:19:40;;;;;;;7.25;3.25;;;;;;;;;;5069809;28;20055;-75
2023/01/13 10:22:30;;;;;;;6.63;2.67;;;;;;;;;;5069504;28;20041;-79
2023/01/13 10:25:27;;;;;;;12.60;4.72;;;;;;;;;;5050927;28;20504;-76
2023/01/13 10:28:07;;;;;;;8.10;3.50;;;;;;;;;;5069216;28;20052;-76
2023/01/13 10:30:44;;;;;;;10.75;3.15;;;;;;;;;;5069130;28;20053;-77
2023/01/13 10:33:23;;;;;;;7.00;3.30;;;;;;;;;;5067924;28;20403;-75
2023/01/13 10:35:59;;;;;;;4.80;2.75;;;;;;;;;;5069044;28;20048;-77
2023/01/13 10:38:36;;;;;;;11.73;3.22;;;;;;;;;;5069591;28;20044;-76
2023/01/13 10:41:17;;;;;;;4.03;2.65;;;;;;;;;;5068504;28;20075;-76
2023/01/13 10:44:01;;;;;;;5.70;2.85;;;;;;;;;;5068935;28;20044;-77
2023/01/13 10:46:34;;;;;;;6.68;3.17;;;;;;;;;;5050993;28;20526;-76
2023/01/13 10:49:26;;;;;;;5.47;2.67;;;;;;;;;;5069591;28;20049;-76
2023/01/13 10:51:57;;;;;;;4.50;2.33;;;;;;;;;;5068269;28;20056;-77
2023/01/13 10:54:28;;;;;;;8.68;3.67;;;;;;;;;;5068399;28;20044;-77
2023/01/13 10:57:20;;;;;;;6.53;3.30;;;;;;;;;;5068702;28;20487;-78
2023/01/13 10:59:51;;;;;;;8.40;3.15;;;;;;;;;;5068826;28;21023;-77
2023/01/13 11:02:32;;;;;;;3.55;2.38;;;;;;;;;;5068327;28;20487;-76
2023/01/13 11:05:24;;;;;;;5.57;2.47;;;;;;;;;;5068571;28;20051;-77
2023/01/13 11:07:56;;;;;;;3.38;2.38;;;;;;;;;;5067114;28;20060;-77
2023/01/13 11:10:30;;;;;;;5.55;2.10;;;;;;;;;;5068324;28;20063;-77
2023/01/13 11:13:13;;;;;;;5.22;2.60;;;;;;;;;;5049961;28;20052;-76
2023/01/13 11:16:15;;;;;;;10.93;5.55;;;;;;;;;;5068623;28;20056;-77
2023/01/13 11:19:10;;;;;;;3.75;2.15;;;;;;;;;;5068042;28;20063;-76
2023/01/13 11:22:01;;;;;;;4.60;2.50;;;;;;;;;;5068457;28;20059;-76
2023/01/13 11:24:43;;;;;;;5.03;2.50;;;;;;;;;;5067677;28;20044;-76
2023/01/13 11:27:13;;;;;;;;;;;;;;;;;;5067991;28;20048;-78
2023/01/13 11:30:37;;;;;;;3.38;2.58;;;;;;;;;;5067978;28;20282;-77
2023/01/13 11:33:14;;;;;;;6.85;2.28;;;;;;;;;;5005076;28;20527;-77
2023/01/13 11:36:10;;;;;;;4.15;2.22;;;;;;;;;;5060026;28;20556;-77
2023/01/13 11:38:55;;;;;;;4.90;2.00;;;;;;;;;;5061757;28;20083;-80
2023/01/13 11:41:35;;;;;;;4.45;2.10;;;;;;;;;;5068463;28;20055;-78
2023/01/13 11:44:20;;;;;;;7.13;2.45;;;;;;;;;;5049037;28;20056;-79
2023/01/13 11:46:52;;;;;;;5.15;2.25;;;;;;;;;;5032652;28;20506;-76
2023/01/13 11:49:32;;;;;;;9.43;3.45;;;;;;;;;;5067832;28;20055;-77
2023/01/13 11:52:27;;;;;;;6.10;2.08;;;;;;;;;;5067510;28;20049;-79
2023/01/13 11:55:04;;;;;;;3.25;2.25;;;;;;;;;;5067411;28;20049;-77
2023/01/13 11:57:53;;;;;;;11.38;2.13;;;;;;;;;;5067350;28;20079;-80
2023/01/13 12:00:45;;;;;;;4.03;1.92;;;;;;;;;;5067111;28;20040;-80
2023/01/13 12:03:47;;;;;;;4.90;1.98;;;;;;;;;;5067357;28;20521;-78
2023/01/13 12:06:39;;;;;;;4.97;2.22;;;;;;;;;;5050533;28;20068;-77
2023/01/13 12:09:24;;;;;;;4.07;2.03;;;;;;;;;;5067198;28;20048;-77
2023/01/13 12:12:26;;;;;;;4.90;1.70;;;;;;;;;;5066915;28;20060;-78
2023/01/13 12:15:27;;;;;;;3.80;2.00;;;;;;;;;;5067341;28;20052;-78
2023/01/13 12:18:34;;;;;;;5.57;2.45;;;;;;;;;;5066822;28;20638;-78
2023/01/13 12:21:19;;;;;;;8.23;2.17;;;;;;;;;;5066705;28;20075;-77
2023/01/13 12:24:09;;;;;;;9.55;2.40;;;;;;;;;;5067056;28;20067;-80
2023/01/13 12:26:51;;;;;;;4.18;2.10;;;;;;;;;;5065835;28;20166;-78
2023/01/13 12:29:34;;;;;;;5.32;2.30;;;;;;;;;;5066742;28;20048;-78
2023/01/13 12:32:15;;;;;;;3.53;2.17;;;;;;;;;;5067421;28;20388;-78
2023/01/13 12:35:42;;;;;;;4.40;2.15;;;;;;;;;;5066629;28;20055;-77
2023/01/13 12:38:28;;;;;;;5.38;2.50;;;;;;;;;;5003813;28;20064;-78
2023/01/13 12:41:07;;;;;;;;;;;;;;;;;;5004882;28;20052;-77
2023/01/13 12:46:52;;;;;;;8.07;2.60;;;;;;;;;;5066466;28;20403;-79
2023/01/13 12:49:26;;;;;;;6.60;2.65;;;;;;;;;;5066134;28;20060;-80
2023/01/13 12:52:02;;;;;;;5.82;2.40;;;;;;;;;;5066117;28;20045;-79
2023/01/13 12:54:43;;;;;;;;;;;;;;;;;;5066976;28;20048;-78
2023/01/13 12:57:20;;;;;;;6.15;2.67;;;;;;;;;;5048519;28;19996;-77
2023/01/13 12:59:59;;;;;;;4.13;2.42;;;;;;;;;;5067162;28;20049;-79
2023/01/13 13:02:32;;;;;;;5.93;2.67;;;;;;;;;;5066171;28;20044;-78
2023/01/13 13:05:15;;;;;;;3.45;2.22;;;;;;;;;;5066417;28;20495;-76
2023/01/13 13:08:06;;;;;;;6.35;3.08;;;;;;;;;;5065777;28;20059;-78
2023/01/13 13:10:39;;;;;;;5.65;3.30;;;;;;;;;;5066147;28;20505;-78
2023/01/13 13:13:47;;;;;;;7.57;4.20;;;;;;;;;;5067071;28;20044;-79
2023/01/13 13:16:26;;;;;;;10.73;4.40;;;;;;;;;;5066444;28;20517;-77
2023/01/13 13:19:22;;;;;;;7.40;4.28;;;;;;;;;;5066043;28;20048;-78
2023/01/13 13:22:11;;;;;;;7.15;4.88;;;;;;;;;;5047051;28;20466;-78
2023/01/13 13:24:51;;;;;;;8.65;3.75;;;;;;;;;;5066649;28;20053;-77
2023/01/13 13:27:31;;;;;;;8.68;3.50;;;;;;;;;;5066593;28;20048;-79
2023/01/13 13:30:16;;;;;;;10.73;3.50;;;;;;;;;;5066309;28;20051;-78
2023/01/13 13:33:03;;;;;;;9.02;4.30;;;;;;;;;;5068485;28;20048;-76
2023/01/13 13:35:40;;;;;;;5.60;3.78;;;;;;;;;;5051560;28;20677;-78
2023/01/13 13:47:06;;;;;;;8.75;3.28;;;;;;;;;;5069718;28;20048;-79
2023/01/13 13:49:52;;;;;;;4.93;2.40;;;;;;;;;;5051986;28;20056;-78
2023/01/13 13:52:41;;;;;;;5.03;2.33;;;;;;;;;;5051518;28;20059;-79
2023/01/13 13:55:19;;;;;;;3.88;1.98;;;;;;;;;;5051789;28;20616;-76
2023/01/13 13:57:56;;;;;;;3.95;2.30;;;;;;;;;;5070146;28;20059;-78
2023/01/13 14:00:33;;;;;;;6.20;3.00;;;;;;;;;;5069645;28;20439;-77
2023/01/13 14:03:07;;;;;;;5.72;2.70;;;;;;;;;;5069550;28;20037;-77
2023/01/13 14:05:38;;;;;;;3.03;2.13;;;;;;;;;;5069714;28;20044;-78
2023/01/13 14:08:17;;;;;;;10.02;2.80;;;;;;;;;;5069631;28;20051;-78
2023/01/13 14:10:48;;;;;;;8.15;2.53;;;;;;;;;;5069508;28;20052;-78
2023/01/13 14:13:28;;;;;;;7.15;2.25;;;;;;;;;;5069531;28;20049;-78
2023/01/13 14:16:03;;;;;;;5.85;1.80;;;;;;;;;;5069458;28;20052;-78
2023/01/13 14:18:43;;;;;;;9.75;2.45;;;;;;;;;;5069220;28;20048;-81
2023/01/13 14:21:19;;;;;;;4.63;1.75;;;;;;;;;;5068996;28;20048;-79
2023/01/13 14:23:57;;;;;;;2.75;2.00;;;;;;;;;;5069306;28;20047;-79
2023/01/13 14:26:30;;;;;;;7.18;2.10;;;;;;;;;;5069198;28;20107;-77
2023/01/13 14:29:01;;;;;;;3.35;1.88;;;;;;;;;;5069426;28;20056;-83
2023/01/13 14:31:33;;;;;;;4.13;1.90;;;;;;;;;;5068522;28;20051;-77
2023/01/13 14:34:07;;;;;;;6.50;2.00;;;;;;;;;;5068900;28;20048;-80
2023/01/13 14:36:58;;;;;;;6.03;1.80;;;;;;;;;;5068422;28;20475;-81
2023/01/13 14:39:38;;;;;;;3.28;1.92;;;;;;;;;;5083633;28;20511;-78
2023/01/13 14:42:16;;;;;;;5.07;1.77;;;;;;;;;;5068534;28;20068;-78
2023/01/13 14:44:52;;;;;;;2.92;1.50;;;;;;;;;;5068717;28;20037;-79
2023/01/13 14:47:31;;;;;;;5.10;1.92;;;;;;;;;;5068224;28;20048;-77
2023/01/13 14:50:10;;;;;;;3.13;2.00;;;;;;;;;;5068823;28;20040;-77
2023/01/13 14:52:49;;;;;;;8.18;2.58;;;;;;;;;;5068680;28;20052;-80
2023/01/13 14:55:29;;;;;;;4.43;2.20;;;;;;;;;;5069309;28;21058;-78
2023/01/13 14:58:18;;;;;;;1.90;1.50;;;;;;;;;;5065813;28;20044;-76
2023/01/13 15:00:50;;;;;;;3.22;1.70;;;;;;;;;;5068716;28;20054;-81
2023/01/13 15:03:21;;;;;;;5.90;2.00;;;;;;;;;;5068581;28;20051;-78
2023/01/13 15:05:53;;;;;;;4.40;1.60;;;;;;;;;;5068399;28;20052;-81
2023/01/13 15:08:30;;;;;;;3.90;1.67;;;;;;;;;;5068242;28;20051;-77
2023/01/13 15:11:06;;;;;;;4.68;1.77;;;;;;;;;;5067375;28;20048;-77
2023/01/13 15:13:37;;;;;;;4.15;2.00;;;;;;;;;;5067807;28;20049;-77
2023/01/13 15:16:23;;;;;;;1.83;1.40;;;;;;;;;;5067477;28;20056;-78
2023/01/13 15:18:55;;;;;;;5.38;1.70;;;;;;;;;;5068478;28;20052;-77
2023/01/13 15:21:25;;;;;;;3.05;1.67;;;;;;;;;;5067578;28;20052;-77
2023/01/13 15:23:56;;;;;;;3.53;1.80;;;;;;;;;;5068095;28;20059;-78
2023/01/13 15:26:29;;;;;;;4.63;1.90;;;;;;;;;;5067378;28;20060;-78
2023/01/13 15:29:02;;;;;;;4.90;1.70;;;;;;;;;;5067938;28;20053;-78
2023/01/13 15:31:32;;;;;;;2.92;1.55;;;;;;;;;;5068648;28;20044;-80
2023/01/13 15:34:03;;;;;;;3.97;1.95;;;;;;;;;;5067918;28;20041;-78
2023/01/13 15:36:36;;;;;;;3.58;1.67;;;;;;;;;;5050932;28;20048;-77
2023/01/13 15:39:06;;;;;;;7.10;2.25;;;;;;;;;;5067404;28;20063;-78
2023/01/13 15:47:16;;;;;;;4.65;2.22;;;;;;;;;;5068081;28;20047;-79
2023/01/13 15:49:46;;;;;;;8.68;2.17;;;;;;;;;;5068150;28;20041;-77
2023/01/13 15:52:23;;;;;;;4.93;1.70;;;;;;;;;;5067972;28;20067;-79
2023/01/13 15:54:54;;;;;;;7.60;1.90;;;;;;;;;;5067412;28;20049;-77
2023/01/13 15:57:34;;;;;;;7.53;2.00;;;;;;;;;;5067249;28;20048;-77
2023/01/13 16:00:21;;;;;;;9.05;2.08;;;;;;;;;;5067767;28;20052;-77
2023/01/13 16:02:52;;;;;;;2.28;1.90;;;;;;;;;;5067753;28;20052;-77
2023/01/13 16:05:22;;;;;;;6.80;2.22;;;;;;;;;;5067350;28;20483;-76
2023/01/13 16:07:52;;;;;;;3.63;2.65;;;;;;;;;;5067065;28;20396;-77
2023/01/13 16:10:26;;;;;;;4.10;2.05;;;;;;;;;;5066728;28;20047;-77
2023/01/13 16:12:56;;;;;;;6.90;2.08;;;;;;;;;;5067213;28;20522;-76
2023/01/13 16:15:27;;;;;;;5.00;2.00;;;;;;;;;;5066764;28;20047;-76
2023/01/13 16:18:02;;;;;;;4.85;2.30;;;;;;;;;;5066877;28;20418;-77
2023/01/13 16:20:34;;;;;;;5.90;2.22;;;;;;;;;;5067577;28;20075;-78
2023/01/13 16:23:04;;;;;;;5.32;2.25;;;;;;;;;;5049100;28;20051;-78
2023/01/13 16:25:34;;;;;;;9.15;2.28;;;;;;;;;;5067075;28;20052;-76
2023/01/13 16:28:06;;;;;;;5.85;2.10;;;;;;;;;;5066973;28;20055;-77
2023/01/13 16:30:40;;;;;;;5.40;1.83;;;;;;;;;;5033240;28;20044;-76
2023/01/13 16:33:10;;;;;;;5.88;2.33;;;;;;;;;;5066842;28;20059;-76
2023/01/13 16:35:41;;;;;;;5.20;2.28;;;;;;;;;;5066590;28;20498;-76
2023/01/13 16:38:35;;;;;;;5.72;2.50;;;;;;;;;;5067305;28;20069;-77
2023/01/13 16:41:08;;;;;;;13.73;2.72;;;;;;;;;;5066551;28;20045;-77
2023/01/13 16:43:38;;;;;;;7.07;2.40;;;;;;;;;;5066608;28;20150;-76